Terminal Aerodrome Forecast
Issued by NWS Sterling, VA

Current Version | Previous Version | Text Only | Print | Product List | Glossary Off
Versions: 1 2 3 4 5 6 7 8 9 10 11 12 13 14 15 16 17 18 19 20 21 22

000
FTUS41 KLWX 182000 AAA
TAFDCA
TAF AMD
KDCA 182059Z 1821/1918 28017G25KT P6SM FEW250
     FM182300 29013G20KT P6SM SKC
     FM190600 27010KT P6SM SKC
     FM191100 26005KT P6SM SKC=

USA.gov is the U.S. government's official web portal to all federal, state and local government web resources and services.